sensor_id;sensor_type;location;lat;lon;timestamp;temperature;humidity
62589;DHT22;58504;48.770;9.148;2023-12-20T00:01:35;21.70;49.40
62589;DHT22;58504;48.770;9.148;2023-12-20T00:04:02;21.60;49.50
62589;DHT22;58504;48.770;9.148;2023-12-20T00:06:29;21.60;49.60
62589;DHT22;58504;48.770;9.148;2023-12-20T00:08:55;21.50;49.60
62589;DHT22;58504;48.770;9.148;2023-12-20T00:11:24;21.50;49.60
62589;DHT22;58504;48.770;9.148;2023-12-20T00:13:52;21.40;49.70
62589;DHT22;58504;48.770;9.148;2023-12-20T00:16:18;21.40;49.70
62589;DHT22;58504;48.770;9.148;2023-12-20T00:18:45;21.40;49.70
62589;DHT22;58504;48.770;9.148;2023-12-20T00:21:12;21.30;49.60
62589;DHT22;58504;48.770;9.148;2023-12-20T00:23:39;21.30;49.60
62589;DHT22;58504;48.770;9.148;2023-12-20T00:26:06;21.20;49.60
62589;DHT22;58504;48.770;9.148;2023-12-20T00:28:34;21.20;49.60
62589;DHT22;58504;48.770;9.148;2023-12-20T00:31:00;21.20;49.60
62589;DHT22;58504;48.770;9.148;2023-12-20T00:33:27;21.10;49.70
62589;DHT22;58504;48.770;9.148;2023-12-20T00:35:54;21.10;49.70
62589;DHT22;58504;48.770;9.148;2023-12-20T00:38:21;21.00;49.70
62589;DHT22;58504;48.770;9.148;2023-12-20T00:40:48;21.10;49.90
62589;DHT22;58504;48.770;9.148;2023-12-20T00:43:15;21.00;49.80
62589;DHT22;58504;48.770;9.148;2023-12-20T00:45:43;21.00;50.00
62589;DHT22;58504;48.770;9.148;2023-12-20T00:48:10;20.90;50.00
62589;DHT22;58504;48.770;9.148;2023-12-20T00:50:37;20.90;50.10
62589;DHT22;58504;48.770;9.148;2023-12-20T00:53:03;20.90;50.20
62589;DHT22;58504;48.770;9.148;2023-12-20T00:55:31;20.90;50.30
62589;DHT22;58504;48.770;9.148;2023-12-20T00:57:58;20.80;50.40
62589;DHT22;58504;48.770;9.148;2023-12-20T01:00:25;20.80;50.40
62589;DHT22;58504;48.770;9.148;2023-12-20T01:02:54;20.80;50.70
62589;DHT22;58504;48.770;9.148;2023-12-20T01:05:20;20.80;50.70
62589;DHT22;58504;48.770;9.148;2023-12-20T01:07:48;20.70;50.70
62589;DHT22;58504;48.770;9.148;2023-12-20T01:10:15;20.70;50.70
62589;DHT22;58504;48.770;9.148;2023-12-20T01:12:43;20.70;50.80
62589;DHT22;58504;48.770;9.148;2023-12-20T01:15:10;20.70;50.80
62589;DHT22;58504;48.770;9.148;2023-12-20T01:17:37;20.60;50.70
62589;DHT22;58504;48.770;9.148;2023-12-20T01:20:07;20.60;50.80
62589;DHT22;58504;48.770;9.148;2023-12-20T01:22:34;20.60;50.90
62589;DHT22;58504;48.770;9.148;2023-12-20T01:25:01;20.60;50.90
62589;DHT22;58504;48.770;9.148;2023-12-20T01:27:28;20.50;50.90
62589;DHT22;58504;48.770;9.148;2023-12-20T01:29:56;20.50;51.00
62589;DHT22;58504;48.770;9.148;2023-12-20T01:32:23;20.50;51.00
62589;DHT22;58504;48.770;9.148;2023-12-20T01:34:50;20.50;51.00
62589;DHT22;58504;48.770;9.148;2023-12-20T01:37:18;20.50;51.00
62589;DHT22;58504;48.770;9.148;2023-12-20T01:39:45;20.40;51.00
62589;DHT22;58504;48.770;9.148;2023-12-20T01:42:11;20.40;51.10
62589;DHT22;58504;48.770;9.148;2023-12-20T01:44:38;20.40;51.10
62589;DHT22;58504;48.770;9.148;2023-12-20T01:47:05;20.40;51.10
62589;DHT22;58504;48.770;9.148;2023-12-20T01:49:32;20.30;51.10
62589;DHT22;58504;48.770;9.148;2023-12-20T01:51:59;20.30;51.10
62589;DHT22;58504;48.770;9.148;2023-12-20T01:54:28;20.30;51.20
62589;DHT22;58504;48.770;9.148;2023-12-20T01:56:55;20.30;51.20
62589;DHT22;58504;48.770;9.148;2023-12-20T01:59:22;20.20;51.20
62589;DHT22;58504;48.770;9.148;2023-12-20T02:01:49;20.20;51.30
62589;DHT22;58504;48.770;9.148;2023-12-20T02:04:16;20.20;51.30
62589;DHT22;58504;48.770;9.148;2023-12-20T02:06:43;20.20;51.40
62589;DHT22;58504;48.770;9.148;2023-12-20T02:09:12;20.20;51.40
62589;DHT22;58504;48.770;9.148;2023-12-20T02:11:40;20.10;51.40
62589;DHT22;58504;48.770;9.148;2023-12-20T02:14:07;20.10;51.40
62589;DHT22;58504;48.770;9.148;2023-12-20T02:16:34;20.10;51.50
62589;DHT22;58504;48.770;9.148;2023-12-20T02:19:01;20.10;51.50
62589;DHT22;58504;48.770;9.148;2023-12-20T02:21:33;20.10;51.50
62589;DHT22;58504;48.770;9.148;2023-12-20T02:24:00;20.10;51.60
62589;DHT22;58504;48.770;9.148;2023-12-20T02:26:27;20.10;51.70
62589;DHT22;58504;48.770;9.148;2023-12-20T02:28:54;20.00;51.60
62589;DHT22;58504;48.770;9.148;2023-12-20T02:31:21;20.00;51.70
62589;DHT22;58504;48.770;9.148;2023-12-20T02:33:48;20.00;51.70
62589;DHT22;58504;48.770;9.148;2023-12-20T02:36:15;20.00;51.70
62589;DHT22;58504;48.770;9.148;2023-12-20T02:38:43;20.00;51.80
62589;DHT22;58504;48.770;9.148;2023-12-20T02:41:10;20.00;51.80
62589;DHT22;58504;48.770;9.148;2023-12-20T02:43:37;19.90;51.80
62589;DHT22;58504;48.770;9.148;2023-12-20T02:46:04;19.90;51.80
62589;DHT22;58504;48.770;9.148;2023-12-20T02:48:30;19.90;51.80
62589;DHT22;58504;48.770;9.148;2023-12-20T02:50:57;19.90;51.80
62589;DHT22;58504;48.770;9.148;2023-12-20T02:53:24;19.90;51.80
62589;DHT22;58504;48.770;9.148;2023-12-20T02:55:52;19.90;51.80
62589;DHT22;58504;48.770;9.148;2023-12-20T02:58:19;19.90;51.90
62589;DHT22;58504;48.770;9.148;2023-12-20T03:00:45;19.90;51.90
62589;DHT22;58504;48.770;9.148;2023-12-20T03:03:12;19.90;52.00
62589;DHT22;58504;48.770;9.148;2023-12-20T03:05:39;19.80;51.90
62589;DHT22;58504;48.770;9.148;2023-12-20T03:08:05;19.90;52.00
62589;DHT22;58504;48.770;9.148;2023-12-20T03:10:32;19.80;51.90
62589;DHT22;58504;48.770;9.148;2023-12-20T03:13:00;19.80;51.90
62589;DHT22;58504;48.770;9.148;2023-12-20T03:15:27;19.80;51.90
62589;DHT22;58504;48.770;9.148;2023-12-20T03:17:54;19.80;51.90
62589;DHT22;58504;48.770;9.148;2023-12-20T03:20:20;19.90;51.80
62589;DHT22;58504;48.770;9.148;2023-12-20T03:22:47;20.10;51.30
62589;DHT22;58504;48.770;9.148;2023-12-20T03:25:14;20.40;50.80
62589;DHT22;58504;48.770;9.148;2023-12-20T03:27:41;20.60;50.70
62589;DHT22;58504;48.770;9.148;2023-12-20T03:30:09;20.80;50.40
62589;DHT22;58504;48.770;9.148;2023-12-20T03:32:37;21.00;50.20
62589;DHT22;58504;48.770;9.148;2023-12-20T03:35:05;21.10;49.90
62589;DHT22;58504;48.770;9.148;2023-12-20T03:37:32;21.20;49.70
62589;DHT22;58504;48.770;9.148;2023-12-20T03:39:59;21.30;49.60
62589;DHT22;58504;48.770;9.148;2023-12-20T03:42:25;21.40;49.50
62589;DHT22;58504;48.770;9.148;2023-12-20T03:44:52;21.50;49.30
62589;DHT22;58504;48.770;9.148;2023-12-20T03:47:20;21.50;49.20
62589;DHT22;58504;48.770;9.148;2023-12-20T03:49:47;21.60;49.30
62589;DHT22;58504;48.770;9.148;2023-12-20T03:52:14;21.60;49.00
62589;DHT22;58504;48.770;9.148;2023-12-20T03:54:41;21.70;49.10
62589;DHT22;58504;48.770;9.148;2023-12-20T03:57:08;21.70;48.70
62589;DHT22;58504;48.770;9.148;2023-12-20T03:59:35;21.70;48.80
62589;DHT22;58504;48.770;9.148;2023-12-20T04:02:02;21.80;48.90
62589;DHT22;58504;48.770;9.148;2023-12-20T04:04:31;21.80;48.80
62589;DHT22;58504;48.770;9.148;2023-12-20T04:06:57;21.80;48.70
62589;DHT22;58504;48.770;9.148;2023-12-20T04:09:24;21.90;48.80
62589;DHT22;58504;48.770;9.148;2023-12-20T04:11:51;21.90;48.60
62589;DHT22;58504;48.770;9.148;2023-12-20T04:14:17;21.90;48.60
62589;DHT22;58504;48.770;9.148;2023-12-20T04:16:44;21.90;48.60
62589;DHT22;58504;48.770;9.148;2023-12-20T04:19:11;22.00;48.50
62589;DHT22;58504;48.770;9.148;2023-12-20T04:21:39;22.00;48.50
62589;DHT22;58504;48.770;9.148;2023-12-20T04:24:06;22.00;48.40
62589;DHT22;58504;48.770;9.148;2023-12-20T04:26:33;22.00;48.40
62589;DHT22;58504;48.770;9.148;2023-12-20T04:29:00;22.10;48.40
62589;DHT22;58504;48.770;9.148;2023-12-20T04:31:27;22.10;48.30
62589;DHT22;58504;48.770;9.148;2023-12-20T04:33:53;22.10;48.20
62589;DHT22;58504;48.770;9.148;2023-12-20T04:36:20;22.10;48.20
62589;DHT22;58504;48.770;9.148;2023-12-20T04:38:48;22.10;48.10
62589;DHT22;58504;48.770;9.148;2023-12-20T04:41:15;22.20;48.20
62589;DHT22;58504;48.770;9.148;2023-12-20T04:43:44;22.20;48.10
62589;DHT22;58504;48.770;9.148;2023-12-20T04:46:10;22.20;48.10
62589;DHT22;58504;48.770;9.148;2023-12-20T04:48:37;22.20;48.00
62589;DHT22;58504;48.770;9.148;2023-12-20T04:51:04;22.20;48.00
62589;DHT22;58504;48.770;9.148;2023-12-20T04:53:31;22.30;48.10
62589;DHT22;58504;48.770;9.148;2023-12-20T04:55:59;22.30;48.00
62589;DHT22;58504;48.770;9.148;2023-12-20T04:58:26;22.30;48.00
62589;DHT22;58504;48.770;9.148;2023-12-20T05:00:53;22.30;47.90
62589;DHT22;58504;48.770;9.148;2023-12-20T05:03:19;22.30;47.90
62589;DHT22;58504;48.770;9.148;2023-12-20T05:05:46;22.30;47.90
62589;DHT22;58504;48.770;9.148;2023-12-20T05:08:13;22.30;47.80
62589;DHT22;58504;48.770;9.148;2023-12-20T05:10:40;22.30;47.80
62589;DHT22;58504;48.770;9.148;2023-12-20T05:13:09;22.40;47.90
62589;DHT22;58504;48.770;9.148;2023-12-20T05:15:36;22.40;47.80
62589;DHT22;58504;48.770;9.148;2023-12-20T05:18:03;22.40;47.80
62589;DHT22;58504;48.770;9.148;2023-12-20T05:20:30;22.40;47.70
62589;DHT22;58504;48.770;9.148;2023-12-20T05:22:57;22.40;47.70
62589;DHT22;58504;48.770;9.148;2023-12-20T05:25:23;22.40;47.60
62589;DHT22;58504;48.770;9.148;2023-12-20T05:27:50;22.40;47.60
62589;DHT22;58504;48.770;9.148;2023-12-20T05:30:19;22.40;47.60
62589;DHT22;58504;48.770;9.148;2023-12-20T05:32:45;22.40;47.60
62589;DHT22;58504;48.770;9.148;2023-12-20T05:35:12;22.40;47.60
62589;DHT22;58504;48.770;9.148;2023-12-20T05:37:39;22.40;48.10
62589;DHT22;58504;48.770;9.148;2023-12-20T05:40:06;22.50;47.60
62589;DHT22;58504;48.770;9.148;2023-12-20T05:42:35;22.40;47.50
62589;DHT22;58504;48.770;9.148;2023-12-20T05:45:02;22.50;47.60
62589;DHT22;58504;48.770;9.148;2023-12-20T05:47:30;22.50;47.60
62589;DHT22;58504;48.770;9.148;2023-12-20T05:49:57;22.50;47.50
62589;DHT22;58504;48.770;9.148;2023-12-20T05:52:24;22.50;47.60
62589;DHT22;58504;48.770;9.148;2023-12-20T05:54:51;22.50;47.50
62589;DHT22;58504;48.770;9.148;2023-12-20T05:57:17;22.50;47.50
62589;DHT22;58504;48.770;9.148;2023-12-20T05:59:44;22.50;47.40
62589;DHT22;58504;48.770;9.148;2023-12-20T06:02:11;22.50;47.40
62589;DHT22;58504;48.770;9.148;2023-12-20T06:04:42;22.50;47.40
62589;DHT22;58504;48.770;9.148;2023-12-20T06:07:11;22.50;47.40
62589;DHT22;58504;48.770;9.148;2023-12-20T06:09:38;22.50;47.30
62589;DHT22;58504;48.770;9.148;2023-12-20T06:12:06;22.50;47.40
62589;DHT22;58504;48.770;9.148;2023-12-20T06:14:33;22.50;47.30
62589;DHT22;58504;48.770;9.148;2023-12-20T06:17:00;22.50;47.30
62589;DHT22;58504;48.770;9.148;2023-12-20T06:19:27;22.50;47.30
62589;DHT22;58504;48.770;9.148;2023-12-20T06:21:55;22.60;47.40
62589;DHT22;58504;48.770;9.148;2023-12-20T06:24:22;22.60;47.40
62589;DHT22;58504;48.770;9.148;2023-12-20T06:26:53;22.60;47.40
62589;DHT22;58504;48.770;9.148;2023-12-20T06:29:20;22.60;47.40
62589;DHT22;58504;48.770;9.148;2023-12-20T06:31:46;22.60;47.30
62589;DHT22;58504;48.770;9.148;2023-12-20T06:34:13;22.60;47.30
62589;DHT22;58504;48.770;9.148;2023-12-20T06:36:40;22.60;47.30
62589;DHT22;58504;48.770;9.148;2023-12-20T06:39:08;22.60;47.30
62589;DHT22;58504;48.770;9.148;2023-12-20T06:41:37;22.60;47.20
62589;DHT22;58504;48.770;9.148;2023-12-20T06:44:04;22.60;47.30
62589;DHT22;58504;48.770;9.148;2023-12-20T06:46:31;22.60;47.70
62589;DHT22;58504;48.770;9.148;2023-12-20T06:48:58;22.60;47.20
62589;DHT22;58504;48.770;9.148;2023-12-20T06:51:25;22.60;47.30
62589;DHT22;58504;48.770;9.148;2023-12-20T06:53:51;22.60;47.20
62589;DHT22;58504;48.770;9.148;2023-12-20T06:56:20;22.60;47.10
62589;DHT22;58504;48.770;9.148;2023-12-20T06:58:46;22.60;47.00
62589;DHT22;58504;48.770;9.148;2023-12-20T07:01:13;22.60;47.00
62589;DHT22;58504;48.770;9.148;2023-12-20T07:03:40;22.60;47.00
62589;DHT22;58504;48.770;9.148;2023-12-20T07:06:07;22.60;46.90
62589;DHT22;58504;48.770;9.148;2023-12-20T07:08:34;22.60;46.90
62589;DHT22;58504;48.770;9.148;2023-12-20T07:11:01;22.60;46.90
62589;DHT22;58504;48.770;9.148;2023-12-20T07:13:29;22.60;46.90
62589;DHT22;58504;48.770;9.148;2023-12-20T07:15:56;22.60;47.00
62589;DHT22;58504;48.770;9.148;2023-12-20T07:18:23;22.60;47.00
62589;DHT22;58504;48.770;9.148;2023-12-20T07:20:50;22.60;47.00
62589;DHT22;58504;48.770;9.148;2023-12-20T07:23:16;22.60;47.00
62589;DHT22;58504;48.770;9.148;2023-12-20T07:25:42;22.70;47.20
62589;DHT22;58504;48.770;9.148;2023-12-20T07:28:09;22.70;47.10
62589;DHT22;58504;48.770;9.148;2023-12-20T07:30:37;22.70;47.20
62589;DHT22;58504;48.770;9.148;2023-12-20T07:33:04;22.70;47.20
62589;DHT22;58504;48.770;9.148;2023-12-20T07:35:33;22.70;47.10
62589;DHT22;58504;48.770;9.148;2023-12-20T07:38:00;22.70;47.10
62589;DHT22;58504;48.770;9.148;2023-12-20T07:40:27;22.70;47.10
62589;DHT22;58504;48.770;9.148;2023-12-20T07:42:54;22.70;47.10
62589;DHT22;58504;48.770;9.148;2023-12-20T07:45:21;22.70;47.00
62589;DHT22;58504;48.770;9.148;2023-12-20T07:47:49;22.70;46.90
62589;DHT22;58504;48.770;9.148;2023-12-20T07:50:16;22.70;47.00
62589;DHT22;58504;48.770;9.148;2023-12-20T07:52:43;22.70;46.90
62589;DHT22;58504;48.770;9.148;2023-12-20T07:55:10;22.70;46.80
62589;DHT22;58504;48.770;9.148;2023-12-20T07:57:36;22.70;46.90
62589;DHT22;58504;48.770;9.148;2023-12-20T08:00:04;22.70;47.10
62589;DHT22;58504;48.770;9.148;2023-12-20T08:02:31;22.70;47.10
62589;DHT22;58504;48.770;9.148;2023-12-20T08:04:59;22.70;47.10
62589;DHT22;58504;48.770;9.148;2023-12-20T08:07:26;22.70;47.10
62589;DHT22;58504;48.770;9.148;2023-12-20T08:09:53;22.70;47.00
62589;DHT22;58504;48.770;9.148;2023-12-20T08:12:20;22.70;47.10
62589;DHT22;58504;48.770;9.148;2023-12-20T08:14:47;22.80;47.10
62589;DHT22;58504;48.770;9.148;2023-12-20T08:17:13;22.80;47.00
62589;DHT22;58504;48.770;9.148;2023-12-20T08:19:41;22.80;46.90
62589;DHT22;58504;48.770;9.148;2023-12-20T08:22:09;22.90;47.00
62589;DHT22;58504;48.770;9.148;2023-12-20T08:24:36;22.90;47.00
62589;DHT22;58504;48.770;9.148;2023-12-20T08:27:04;22.90;46.80
62589;DHT22;58504;48.770;9.148;2023-12-20T08:29:30;22.90;46.90
62589;DHT22;58504;48.770;9.148;2023-12-20T08:31:59;22.90;47.00
62589;DHT22;58504;48.770;9.148;2023-12-20T08:34:25;22.90;46.90
62589;DHT22;58504;48.770;9.148;2023-12-20T08:36:53;22.90;46.90
62589;DHT22;58504;48.770;9.148;2023-12-20T08:39:21;23.00;47.00
62589;DHT22;58504;48.770;9.148;2023-12-20T08:41:48;23.00;47.00
62589;DHT22;58504;48.770;9.148;2023-12-20T08:44:15;23.10;47.00
62589;DHT22;58504;48.770;9.148;2023-12-20T08:46:42;23.00;46.90
62589;DHT22;58504;48.770;9.148;2023-12-20T08:49:09;23.00;46.90
62589;DHT22;58504;48.770;9.148;2023-12-20T08:51:36;23.00;46.80
62589;DHT22;58504;48.770;9.148;2023-12-20T08:54:05;23.00;46.90
62589;DHT22;58504;48.770;9.148;2023-12-20T08:56:34;23.00;46.90
62589;DHT22;58504;48.770;9.148;2023-12-20T08:59:01;23.00;47.10
62589;DHT22;58504;48.770;9.148;2023-12-20T09:01:28;22.90;47.20
62589;DHT22;58504;48.770;9.148;2023-12-20T09:03:55;22.90;47.30
62589;DHT22;58504;48.770;9.148;2023-12-20T09:06:22;22.90;47.30
62589;DHT22;58504;48.770;9.148;2023-12-20T09:08:48;23.00;47.20
62589;DHT22;58504;48.770;9.148;2023-12-20T09:11:15;23.00;47.00
62589;DHT22;58504;48.770;9.148;2023-12-20T09:13:44;23.10;47.10
62589;DHT22;58504;48.770;9.148;2023-12-20T09:16:11;23.10;47.10
62589;DHT22;58504;48.770;9.148;2023-12-20T09:18:38;23.10;47.00
62589;DHT22;58504;48.770;9.148;2023-12-20T09:21:05;23.10;47.00
62589;DHT22;58504;48.770;9.148;2023-12-20T09:23:32;23.10;46.90
62589;DHT22;58504;48.770;9.148;2023-12-20T09:25:58;23.20;47.00
62589;DHT22;58504;48.770;9.148;2023-12-20T09:28:25;23.10;46.90
62589;DHT22;58504;48.770;9.148;2023-12-20T09:30:53;23.10;46.80
62589;DHT22;58504;48.770;9.148;2023-12-20T09:33:20;23.20;46.90
62589;DHT22;58504;48.770;9.148;2023-12-20T09:35:47;23.20;46.90
62589;DHT22;58504;48.770;9.148;2023-12-20T09:38:13;23.20;46.90
62589;DHT22;58504;48.770;9.148;2023-12-20T09:40:41;23.20;46.80
62589;DHT22;58504;48.770;9.148;2023-12-20T09:43:10;23.20;46.90
62589;DHT22;58504;48.770;9.148;2023-12-20T09:45:38;23.20;46.90
62589;DHT22;58504;48.770;9.148;2023-12-20T09:48:10;23.20;46.90
62589;DHT22;58504;48.770;9.148;2023-12-20T09:50:37;23.20;46.80
62589;DHT22;58504;48.770;9.148;2023-12-20T09:53:05;23.30;46.90
62589;DHT22;58504;48.770;9.148;2023-12-20T09:55:36;23.30;46.90
62589;DHT22;58504;48.770;9.148;2023-12-20T09:58:03;23.30;46.80
62589;DHT22;58504;48.770;9.148;2023-12-20T10:00:31;23.30;46.70
62589;DHT22;58504;48.770;9.148;2023-12-20T10:02:59;23.30;46.80
62589;DHT22;58504;48.770;9.148;2023-12-20T10:05:28;23.30;46.90
62589;DHT22;58504;48.770;9.148;2023-12-20T10:07:55;23.30;46.80
62589;DHT22;58504;48.770;9.148;2023-12-20T10:10:22;23.30;46.80
62589;DHT22;58504;48.770;9.148;2023-12-20T10:13:02;23.30;46.80
62589;DHT22;58504;48.770;9.148;2023-12-20T10:15:29;23.40;47.00
62589;DHT22;58504;48.770;9.148;2023-12-20T10:17:56;23.40;46.70
62589;DHT22;58504;48.770;9.148;2023-12-20T10:20:23;23.40;46.70
62589;DHT22;58504;48.770;9.148;2023-12-20T10:22:52;23.40;46.60
62589;DHT22;58504;48.770;9.148;2023-12-20T10:25:19;23.40;46.50
62589;DHT22;58504;48.770;9.148;2023-12-20T10:27:46;23.40;46.50
62589;DHT22;58504;48.770;9.148;2023-12-20T10:30:13;23.40;46.50
62589;DHT22;58504;48.770;9.148;2023-12-20T10:32:40;23.40;46.60
62589;DHT22;58504;48.770;9.148;2023-12-20T10:35:08;23.40;46.60
62589;DHT22;58504;48.770;9.148;2023-12-20T10:37:36;23.40;46.70
62589;DHT22;58504;48.770;9.148;2023-12-20T10:40:05;23.40;46.70
62589;DHT22;58504;48.770;9.148;2023-12-20T10:42:32;23.40;46.70
62589;DHT22;58504;48.770;9.148;2023-12-20T10:45:01;23.40;46.70
62589;DHT22;58504;48.770;9.148;2023-12-20T10:47:30;23.40;46.70
62589;DHT22;58504;48.770;9.148;2023-12-20T10:49:59;23.50;46.70
62589;DHT22;58504;48.770;9.148;2023-12-20T10:52:28;23.50;46.70
62589;DHT22;58504;48.770;9.148;2023-12-20T10:54:55;23.50;46.70
62589;DHT22;58504;48.770;9.148;2023-12-20T10:57:27;23.50;46.50
62589;DHT22;58504;48.770;9.148;2023-12-20T10:59:56;23.50;46.60
62589;DHT22;58504;48.770;9.148;2023-12-20T11:02:28;23.50;46.70
62589;DHT22;58504;48.770;9.148;2023-12-20T11:05:02;23.50;46.60
62589;DHT22;58504;48.770;9.148;2023-12-20T11:07:36;23.50;46.60
62589;DHT22;58504;48.770;9.148;2023-12-20T11:10:16;23.50;46.50
62589;DHT22;58504;48.770;9.148;2023-12-20T11:12:50;23.50;46.80
62589;DHT22;58504;48.770;9.148;2023-12-20T11:15:19;23.50;46.80
62589;DHT22;58504;48.770;9.148;2023-12-20T11:17:47;23.50;46.80
62589;DHT22;58504;48.770;9.148;2023-12-20T11:20:22;23.60;46.70
62589;DHT22;58504;48.770;9.148;2023-12-20T11:22:53;23.60;46.60
62589;DHT22;58504;48.770;9.148;2023-12-20T11:25:20;23.60;46.60
62589;DHT22;58504;48.770;9.148;2023-12-20T11:28:08;23.60;46.60
62589;DHT22;58504;48.770;9.148;2023-12-20T11:30:42;23.60;46.50
62589;DHT22;58504;48.770;9.148;2023-12-20T11:33:09;23.50;46.60
62589;DHT22;58504;48.770;9.148;2023-12-20T11:35:36;23.50;46.60
62589;DHT22;58504;48.770;9.148;2023-12-20T11:38:06;23.50;46.70
62589;DHT22;58504;48.770;9.148;2023-12-20T11:40:35;23.50;46.70
62589;DHT22;58504;48.770;9.148;2023-12-20T11:43:03;23.50;46.70
62589;DHT22;58504;48.770;9.148;2023-12-20T11:45:30;23.50;46.70
62589;DHT22;58504;48.770;9.148;2023-12-20T11:47:58;23.50;46.70
62589;DHT22;58504;48.770;9.148;2023-12-20T11:50:25;23.40;46.60
62589;DHT22;58504;48.770;9.148;2023-12-20T11:52:53;23.40;46.80
62589;DHT22;58504;48.770;9.148;2023-12-20T11:55:20;23.50;47.00
62589;DHT22;58504;48.770;9.148;2023-12-20T11:57:47;23.50;47.20
62589;DHT22;58504;48.770;9.148;2023-12-20T12:00:18;23.50;47.10
62589;DHT22;58504;48.770;9.148;2023-12-20T12:02:55;23.50;47.00
62589;DHT22;58504;48.770;9.148;2023-12-20T12:05:22;23.50;47.00
62589;DHT22;58504;48.770;9.148;2023-12-20T12:07:48;23.50;47.00
62589;DHT22;58504;48.770;9.148;2023-12-20T12:10:15;23.50;47.00
62589;DHT22;58504;48.770;9.148;2023-12-20T12:12:42;23.50;46.90
62589;DHT22;58504;48.770;9.148;2023-12-20T12:15:09;23.50;47.00
62589;DHT22;58504;48.770;9.148;2023-12-20T12:17:37;23.50;46.90
62589;DHT22;58504;48.770;9.148;2023-12-20T12:20:05;23.50;46.90
62589;DHT22;58504;48.770;9.148;2023-12-20T12:22:33;23.50;46.80
62589;DHT22;58504;48.770;9.148;2023-12-20T12:25:10;23.60;46.80
62589;DHT22;58504;48.770;9.148;2023-12-20T12:27:37;23.60;46.80
62589;DHT22;58504;48.770;9.148;2023-12-20T12:30:06;23.60;46.70
62589;DHT22;58504;48.770;9.148;2023-12-20T12:32:33;23.60;46.70
62589;DHT22;58504;48.770;9.148;2023-12-20T12:35:03;23.70;46.70
62589;DHT22;58504;48.770;9.148;2023-12-20T12:37:33;23.60;46.70
62589;DHT22;58504;48.770;9.148;2023-12-20T12:40:00;23.70;46.80
62589;DHT22;58504;48.770;9.148;2023-12-20T12:42:27;23.70;46.80
62589;DHT22;58504;48.770;9.148;2023-12-20T12:44:54;23.70;46.80
62589;DHT22;58504;48.770;9.148;2023-12-20T12:47:21;23.70;46.70
62589;DHT22;58504;48.770;9.148;2023-12-20T12:49:51;23.70;46.60
62589;DHT22;58504;48.770;9.148;2023-12-20T12:52:19;23.80;46.70
62589;DHT22;58504;48.770;9.148;2023-12-20T12:54:46;23.70;46.60
62589;DHT22;58504;48.770;9.148;2023-12-20T12:57:14;23.70;46.70
62589;DHT22;58504;48.770;9.148;2023-12-20T12:59:41;23.70;46.80
62589;DHT22;58504;48.770;9.148;2023-12-20T13:02:08;23.60;46.80
62589;DHT22;58504;48.770;9.148;2023-12-20T13:04:34;23.60;46.90
62589;DHT22;58504;48.770;9.148;2023-12-20T13:07:01;23.60;46.90
62589;DHT22;58504;48.770;9.148;2023-12-20T13:09:30;23.60;47.10
62589;DHT22;58504;48.770;9.148;2023-12-20T13:11:57;23.60;47.00
62589;DHT22;58504;48.770;9.148;2023-12-20T13:14:24;23.50;46.90
62589;DHT22;58504;48.770;9.148;2023-12-20T13:16:52;23.50;46.90
62589;DHT22;58504;48.770;9.148;2023-12-20T13:19:19;23.60;47.00
62589;DHT22;58504;48.770;9.148;2023-12-20T13:21:46;23.60;47.00
62589;DHT22;58504;48.770;9.148;2023-12-20T13:24:14;23.60;47.10
62589;DHT22;58504;48.770;9.148;2023-12-20T13:26:42;23.60;47.50
62589;DHT22;58504;48.770;9.148;2023-12-20T13:29:09;23.70;46.90
62589;DHT22;58504;48.770;9.148;2023-12-20T13:31:36;23.70;46.60
62589;DHT22;58504;48.770;9.148;2023-12-20T13:34:03;23.80;46.70
62589;DHT22;58504;48.770;9.148;2023-12-20T13:36:29;23.80;46.60
62589;DHT22;58504;48.770;9.148;2023-12-20T13:38:56;23.80;46.40
62589;DHT22;58504;48.770;9.148;2023-12-20T13:41:23;23.80;46.40
62589;DHT22;58504;48.770;9.148;2023-12-20T13:43:51;23.80;46.40
62589;DHT22;58504;48.770;9.148;2023-12-20T13:46:18;23.80;46.40
62589;DHT22;58504;48.770;9.148;2023-12-20T13:48:44;23.70;46.40
62589;DHT22;58504;48.770;9.148;2023-12-20T13:51:11;23.70;46.40
62589;DHT22;58504;48.770;9.148;2023-12-20T13:53:38;23.60;46.40
62589;DHT22;58504;48.770;9.148;2023-12-20T13:56:05;23.60;46.60
62589;DHT22;58504;48.770;9.148;2023-12-20T13:58:32;23.60;46.70
62589;DHT22;58504;48.770;9.148;2023-12-20T14:01:00;23.50;46.70
62589;DHT22;58504;48.770;9.148;2023-12-20T14:03:26;23.50;46.90
62589;DHT22;58504;48.770;9.148;2023-12-20T14:05:53;23.50;47.00
62589;DHT22;58504;48.770;9.148;2023-12-20T14:08:20;23.50;46.80
62589;DHT22;58504;48.770;9.148;2023-12-20T14:10:46;23.40;46.70
62589;DHT22;58504;48.770;9.148;2023-12-20T14:13:14;23.50;47.00
62589;DHT22;58504;48.770;9.148;2023-12-20T14:15:41;23.50;47.10
62589;DHT22;58504;48.770;9.148;2023-12-20T14:18:09;23.40;46.30
62589;DHT22;58504;48.770;9.148;2023-12-20T14:20:35;23.40;46.40
62589;DHT22;58504;48.770;9.148;2023-12-20T14:23:04;23.40;47.20
62589;DHT22;58504;48.770;9.148;2023-12-20T14:25:31;23.40;46.80
62589;DHT22;58504;48.770;9.148;2023-12-20T14:27:58;23.40;46.90
62589;DHT22;58504;48.770;9.148;2023-12-20T14:30:25;23.40;47.00
62589;DHT22;58504;48.770;9.148;2023-12-20T14:32:52;23.40;47.00
62589;DHT22;58504;48.770;9.148;2023-12-20T14:35:20;23.40;47.10
62589;DHT22;58504;48.770;9.148;2023-12-20T14:37:47;23.40;47.10
62589;DHT22;58504;48.770;9.148;2023-12-20T14:40:14;23.40;47.00
62589;DHT22;58504;48.770;9.148;2023-12-20T14:42:42;23.40;47.10
62589;DHT22;58504;48.770;9.148;2023-12-20T14:45:09;23.40;47.10
62589;DHT22;58504;48.770;9.148;2023-12-20T14:47:36;23.40;47.10
62589;DHT22;58504;48.770;9.148;2023-12-20T14:50:03;23.40;47.20
62589;DHT22;58504;48.770;9.148;2023-12-20T14:52:32;23.40;47.20
62589;DHT22;58504;48.770;9.148;2023-12-20T14:55:00;23.40;47.30
62589;DHT22;58504;48.770;9.148;2023-12-20T14:57:26;23.40;47.30
62589;DHT22;58504;48.770;9.148;2023-12-20T14:59:54;23.40;47.30
62589;DHT22;58504;48.770;9.148;2023-12-20T15:02:21;23.40;47.20
62589;DHT22;58504;48.770;9.148;2023-12-20T15:04:48;23.40;47.20
62589;DHT22;58504;48.770;9.148;2023-12-20T15:07:16;23.50;47.10
62589;DHT22;58504;48.770;9.148;2023-12-20T15:09:44;23.50;47.30
62589;DHT22;58504;48.770;9.148;2023-12-20T15:12:13;23.50;47.10
62589;DHT22;58504;48.770;9.148;2023-12-20T15:14:40;23.40;47.10
62589;DHT22;58504;48.770;9.148;2023-12-20T15:17:07;23.40;47.20
62589;DHT22;58504;48.770;9.148;2023-12-20T15:19:34;23.50;47.40
62589;DHT22;58504;48.770;9.148;2023-12-20T15:22:01;23.50;47.30
62589;DHT22;58504;48.770;9.148;2023-12-20T15:24:29;23.50;47.30
62589;DHT22;58504;48.770;9.148;2023-12-20T15:27:05;23.50;47.30
62589;DHT22;58504;48.770;9.148;2023-12-20T15:29:32;23.50;47.30
62589;DHT22;58504;48.770;9.148;2023-12-20T15:31:59;23.50;47.40